Time;durP1;ratioP1;P1;durP2;ratioP2;P2;SDS_P1;SDS_P2;PMS_P1;PMS_P2;Temp;Humidity;BMP_temperature;BMP_pressure;BME280_temperature;BME280_humidity;BME280_pressure;Samples;Min_cycle;Max_cycle;Signal;HPM_P1;HPM_P2
2022/06/03 00:01:50;;;;;;;2.20;1.65;;;22.00;93.60;;;;;;4243414;27;20650;-74
2022/06/03 00:04:12;;;;;;;2.40;1.75;;;22.00;93.70;;;;;;4242130;27;20277;-73
2022/06/03 00:06:40;;;;;;;1.90;1.50;;;22.00;93.40;;;;;;4243650;27;20236;-74
2022/06/03 00:09:00;;;;;;;2.42;1.70;;;22.00;94.30;;;;;;4242304;27;20269;-74
2022/06/03 00:11:17;;;;;;;2.35;1.60;;;22.00;94.50;;;;;;4243721;27;20254;-74
2022/06/03 00:13:36;;;;;;;2.05;1.60;;;22.00;93.90;;;;;;4243397;27;20209;-74
2022/06/03 00:16:04;;;;;;;1.90;1.80;;;22.00;94.30;;;;;;4240057;27;20273;-74
2022/06/03 00:18:31;;;;;;;1.92;1.58;;;22.00;93.40;;;;;;4241725;27;20213;-74
2022/06/03 00:20:54;;;;;;;2.40;1.70;;;22.00;93.80;;;;;;4241014;27;20240;-73
2022/06/03 00:23:28;;;;;;;3.40;1.90;;;22.00;93.30;;;;;;4244862;27;20209;-74
2022/06/03 00:25:53;;;;;;;1.60;1.50;;;22.00;94.10;;;;;;4242728;27;20717;-74
2022/06/03 00:28:14;;;;;;;2.45;1.95;;;21.90;94.40;;;;;;4242970;27;20263;-74
2022/06/03 00:30:26;;;;;;;1.77;1.50;;;21.90;94.20;;;;;;4244697;27;20261;-74
2022/06/03 00:33:11;;;;;;;2.85;1.55;;;21.90;94.10;;;;;;4242870;27;20628;-74
2022/06/03 00:35:41;;;;;;;1.70;1.52;;;21.90;94.30;;;;;;4243230;27;20714;-74
2022/06/03 00:37:49;;;;;;;2.35;1.55;;;21.90;94.70;;;;;;4243747;27;20453;-74
2022/06/03 00:40:01;;;;;;;1.92;1.55;;;21.90;94.60;;;;;;4243519;27;20254;-74
2022/06/03 00:42:30;;;;;;;1.92;1.70;;;21.90;94.20;;;;;;4244409;27;21025;-74
2022/06/03 00:45:11;;;;;;;1.80;1.50;;;21.90;95.10;;;;;;4243577;27;20228;-74
2022/06/03 00:47:28;;;;;;;2.80;2.00;;;21.90;94.40;;;;;;4236441;27;20641;-74
2022/06/03 00:49:52;;;;;;;1.70;1.60;;;21.90;94.80;;;;;;4241079;27;20649;-74
2022/06/03 00:52:25;;;;;;;2.00;1.60;;;21.90;94.60;;;;;;4244177;27;20261;-74
2022/06/03 00:55:03;;;;;;;2.17;1.90;;;21.90;94.20;;;;;;4202630;27;20221;-74
2022/06/03 00:57:37;;;;;;;2.00;1.70;;;21.90;95.00;;;;;;4243977;27;20953;-74
2022/06/03 01:00:02;;;;;;;3.58;1.63;;;21.80;94.90;;;;;;4223113;27;20216;-73
2022/06/03 01:02:16;;;;;;;2.72;1.60;;;21.80;95.00;;;;;;4244070;27;20213;-74
2022/06/03 01:04:43;;;;;;;2.20;2.00;;;21.80;95.00;;;;;;4243047;27;20277;-74
2022/06/03 01:06:59;;;;;;;1.95;1.50;;;21.80;95.20;;;;;;4241454;27;20270;-74
2022/06/03 01:09:14;;;;;;;2.33;1.60;;;21.80;95.10;;;;;;4243680;27;20261;-74
2022/06/03 01:11:29;;;;;;;1.70;1.60;;;21.80;95.40;;;;;;4244038;27;20204;-74
2022/06/03 01:13:50;;;;;;;1.90;1.70;;;21.80;95.20;;;;;;4242784;27;20220;-74
2022/06/03 01:16:00;;;;;;;2.05;1.70;;;21.80;95.00;;;;;;4242661;27;20258;-73
2022/06/03 01:18:18;;;;;;;2.17;1.90;;;21.80;95.30;;;;;;4242988;27;20229;-74
2022/06/03 01:20:30;;;;;;;1.98;1.77;;;21.80;95.40;;;;;;4243663;27;21520;-74
2022/06/03 01:23:15;;;;;;;2.63;1.83;;;21.80;95.60;;;;;;4242801;28;20678;-74
2022/06/03 01:25:47;;;;;;;2.13;1.83;;;21.70;95.40;;;;;;4243680;27;20248;-74
2022/06/03 01:28:14;;;;;;;2.60;1.60;;;21.70;95.30;;;;;;4220618;28;20216;-74
2022/06/03 01:30:22;;;;;;;2.42;1.90;;;21.80;95.70;;;;;;4242131;28;20220;-74
2022/06/03 01:33:01;;;;;;;2.05;1.80;;;21.70;95.50;;;;;;4242681;28;20224;-74
2022/06/03 01:35:25;;;;;;;2.75;1.50;;;21.70;95.30;;;;;;4242062;28;20249;-74
2022/06/03 01:37:33;;;;;;;2.95;1.70;;;21.70;95.20;;;;;;4243282;28;20258;-74
2022/06/03 01:40:08;;;;;;;2.65;1.67;;;21.70;95.60;;;;;;4243216;28;20220;-74
2022/06/03 01:42:38;;;;;;;2.92;1.52;;;21.70;95.50;;;;;;4241367;28;20281;-74
2022/06/03 01:44:57;;;;;;;2.20;1.70;;;21.70;95.70;;;;;;4242509;28;20277;-74
2022/06/03 01:47:21;;;;;;;2.28;1.70;;;21.70;96.00;;;;;;4241976;28;20257;-74
2022/06/03 01:49:45;;;;;;;1.80;1.60;;;21.60;95.60;;;;;;4243144;28;20274;-74
2022/06/03 01:52:23;;;;;;;3.78;2.00;;;21.60;95.80;;;;;;4241776;28;20208;-74
2022/06/03 01:54:57;;;;;;;1.73;1.63;;;21.60;95.50;;;;;;4243700;28;20265;-74
2022/06/03 01:57:22;;;;;;;1.65;1.55;;;21.60;95.80;;;;;;4239969;28;20216;-73
2022/06/03 02:00:03;;;;;;;2.38;1.65;;;21.60;95.80;;;;;;4240545;28;20213;-74
2022/06/03 02:02:52;;;;;;;1.90;1.65;;;21.60;95.70;;;;;;4243882;28;20324;-74
2022/06/03 02:05:42;;;;;;;2.30;1.60;;;21.60;95.90;;;;;;4242201;28;20217;-74
2022/06/03 02:08:09;;;;;;;2.00;1.80;;;21.60;96.00;;;;;;4190738;28;20342;-73
2022/06/03 02:10:46;;;;;;;2.78;1.90;;;21.60;95.30;;;;;;4227990;28;20221;-73
2022/06/03 02:13:30;;;;;;;1.92;1.75;;;21.60;95.40;;;;;;4241126;28;20254;-74
2022/06/03 02:16:06;;;;;;;2.38;1.70;;;21.50;95.50;;;;;;4193147;28;20250;-74
2022/06/03 02:18:53;;;;;;;2.40;1.70;;;21.50;95.00;;;;;;4243400;28;20661;-74
2022/06/03 02:21:34;;;;;;;2.75;1.85;;;21.50;95.40;;;;;;4189007;28;20211;-74
2022/06/03 02:24:17;;;;;;;2.85;2.00;;;21.50;95.60;;;;;;4205757;28;20265;-74
2022/06/03 02:26:54;;;;;;;3.03;1.90;;;21.50;95.60;;;;;;4243300;28;20225;-74
2022/06/03 02:31:51;;;;;;;4.47;2.10;;;21.50;95.70;;;;;;4242132;28;20194;-73
2022/06/03 02:34:32;;;;;;;2.90;2.20;;;21.50;95.60;;;;;;4241878;28;20213;-73
2022/06/03 02:37:13;;;;;;;2.95;1.92;;;21.50;95.30;;;;;;4216182;28;20221;-74
2022/06/03 02:39:38;;;;;;;2.13;1.50;;;21.50;95.40;;;;;;4241688;27;20657;-74
2022/06/03 02:42:06;;;;;;;2.50;1.98;;;21.50;95.60;;;;;;4243331;27;20233;-73
2022/06/03 02:44:49;;;;;;;3.50;1.95;;;21.50;95.40;;;;;;4245195;27;21014;-73
2022/06/03 02:47:25;;;;;;;2.45;1.80;;;21.50;95.20;;;;;;4236634;27;20666;-74
2022/06/03 02:50:01;;;;;;;3.15;2.05;;;21.40;95.60;;;;;;4212775;27;20216;-74
2022/06/03 02:52:32;;;;;;;2.10;1.70;;;21.40;95.70;;;;;;4245288;27;20657;-74
2022/06/03 02:55:04;;;;;;;2.33;1.70;;;21.50;95.50;;;;;;4243025;27;20221;-74
2022/06/03 02:57:47;;;;;;;4.22;1.80;;;21.50;95.30;;;;;;4245305;27;20220;-73
2022/06/03 03:00:20;;;;;;;1.95;1.70;;;21.40;95.40;;;;;;4244631;27;20217;-73
2022/06/03 03:02:41;;;;;;;2.55;2.17;;;21.40;95.50;;;;;;4244703;27;20301;-74
2022/06/03 03:04:55;;;;;;;2.63;1.95;;;21.40;94.90;;;;;;4243857;27;20213;-74
2022/06/03 03:07:21;;;;;;;4.05;1.90;;;21.40;95.70;;;;;;4243775;27;20297;-74
2022/06/03 03:09:40;;;;;;;2.55;1.95;;;21.40;95.00;;;;;;4245087;27;20290;-74
2022/06/03 03:12:16;;;;;;;2.28;2.00;;;21.40;95.70;;;;;;4243590;27;20213;-74
2022/06/03 03:14:48;;;;;;;2.25;1.80;;;21.40;95.30;;;;;;4243977;27;20262;-74
2022/06/03 03:17:23;;;;;;;2.22;2.00;;;21.40;95.30;;;;;;4243317;27;20718;-74
2022/06/03 03:19:46;;;;;;;2.28;1.90;;;21.40;95.60;;;;;;4244670;27;20220;-74
2022/06/03 03:22:16;;;;;;;1.98;1.77;;;21.40;95.40;;;;;;4243277;27;20286;-74
2022/06/03 03:24:35;;;;;;;3.30;2.10;;;21.40;95.30;;;;;;4217976;27;20947;-74
2022/06/03 03:26:51;;;;;;;3.50;1.90;;;21.40;95.50;;;;;;4244457;27;20270;-74
2022/06/03 03:29:17;;;;;;;2.17;1.73;;;21.30;95.10;;;;;;4242879;27;20235;-74
2022/06/03 03:31:59;;;;;;;2.85;1.88;;;21.40;95.20;;;;;;4244222;27;20670;-74
2022/06/03 03:34:15;;;;;;;3.65;1.88;;;21.30;95.50;;;;;;4230237;27;20217;-74
2022/06/03 03:36:40;;;;;;;3.00;1.90;;;21.30;94.90;;;;;;4244451;27;20273;-74
2022/06/03 03:39:06;;;;;;;2.83;1.92;;;21.30;95.20;;;;;;4238791;27;20563;-74
2022/06/03 03:41:34;;;;;;;2.95;1.80;;;21.40;95.60;;;;;;4240722;27;20217;-74
2022/06/03 03:43:59;;;;;;;3.95;1.90;;;21.30;95.40;;;;;;4240813;27;20676;-74
2022/06/03 03:46:37;;;;;;;2.33;1.67;;;21.30;94.90;;;;;;4241761;27;20217;-74
2022/06/03 03:49:16;;;;;;;3.45;1.80;;;21.30;95.50;;;;;;4243825;27;20591;-74
2022/06/03 03:51:35;;;;;;;2.20;2.00;;;21.30;95.30;;;;;;4243033;27;20257;-74
2022/06/03 03:54:25;;;;;;;1.98;1.80;;;21.30;95.00;;;;;;4243768;27;20248;-74
2022/06/03 03:57:11;;;;;;;3.10;1.83;;;21.30;95.30;;;;;;4243695;27;20313;-74
2022/06/03 04:00:04;;;;;;;4.03;2.13;;;21.30;95.60;;;;;;4208029;27;20261;-74
2022/06/03 04:02:36;;;;;;;2.28;1.83;;;21.30;94.80;;;;;;4242686;27;20244;-74
2022/06/03 04:05:01;;;;;;;2.80;1.92;;;21.30;95.30;;;;;;4244293;27;20249;-74
2022/06/03 04:07:34;;;;;;;1.65;1.55;;;21.30;95.10;;;;;;4242998;27;20244;-74
2022/06/03 04:10:04;;;;;;;2.72;1.50;;;21.30;95.40;;;;;;4207884;27;20220;-74
2022/06/03 04:12:31;;;;;;;2.65;1.90;;;21.30;95.50;;;;;;4243362;27;20214;-74
2022/06/03 04:15:02;;;;;;;4.38;2.03;;;21.30;95.70;;;;;;4242789;27;20217;-74
2022/06/03 04:17:34;;;;;;;2.63;1.88;;;21.30;95.60;;;;;;4243101;27;20641;-74
2022/06/03 04:20:14;;;;;;;3.08;1.83;;;21.20;95.50;;;;;;4242855;27;20217;-74
2022/06/03 04:22:50;;;;;;;1.70;1.60;;;21.30;95.10;;;;;;4243713;27;20244;-74
2022/06/03 04:25:16;;;;;;;2.10;1.65;;;21.30;95.40;;;;;;4244761;27;20245;-74
2022/06/03 04:28:12;;;;;;;3.33;1.95;;;21.30;95.40;;;;;;4225729;27;20216;-74
2022/06/03 04:30:55;;;;;;;3.65;1.60;;;21.30;95.40;;;;;;4225488;27;20277;-74
2022/06/03 04:33:42;;;;;;;2.00;1.80;;;21.20;95.20;;;;;;4242099;27;20221;-74
2022/06/03 04:36:27;;;;;;;3.00;1.70;;;21.30;95.50;;;;;;4240956;27;20214;-74
2022/06/03 04:39:00;;;;;;;2.00;1.80;;;21.20;95.80;;;;;;4192675;27;20254;-74
2022/06/03 04:41:56;;;;;;;1.88;1.65;;;21.30;95.70;;;;;;4243037;27;20209;-74
2022/06/03 04:44:44;;;;;;;2.97;1.60;;;21.20;95.30;;;;;;4238183;27;20836;-74
2022/06/03 04:47:26;;;;;;;3.40;1.70;;;21.30;95.70;;;;;;4242131;27;20262;-74
2022/06/03 04:50:37;;;;;;;2.92;1.90;;;21.30;95.30;;;;;;4242853;27;20220;-74
2022/06/03 04:53:13;;;;;;;2.92;1.80;;;21.30;96.10;;;;;;4193769;27;20974;-74
2022/06/03 04:55:48;;;;;;;2.20;1.80;;;21.20;95.30;;;;;;4242591;27;20583;-74
2022/06/03 04:58:18;;;;;;;2.35;1.88;;;21.30;96.00;;;;;;4242329;27;20273;-74
2022/06/03 05:00:27;;;;;;;2.50;1.60;;;21.30;95.60;;;;;;4242976;27;20293;-74
2022/06/03 05:03:13;;;;;;;2.63;2.00;;;21.30;95.40;;;;;;4241684;27;20244;-73
2022/06/03 05:05:59;;;;;;;3.38;2.00;;;21.20;95.70;;;;;;4242942;27;21049;-74
2022/06/03 05:08:51;;;;;;;2.65;1.67;;;21.30;95.70;;;;;;4224552;28;20241;-74
2022/06/03 05:11:41;;;;;;;4.13;1.90;;;21.30;95.70;;;;;;4223364;28;20732;-74
2022/06/03 05:14:32;;;;;;;2.17;1.70;;;21.30;95.70;;;;;;4188228;28;21047;-74
2022/06/03 05:17:16;;;;;;;2.00;1.80;;;21.30;95.90;;;;;;4226076;28;20233;-73
2022/06/03 05:20:06;;;;;;;3.47;1.83;;;21.30;96.00;;;;;;4214401;28;20222;-74
2022/06/03 05:22:49;;;;;;;2.35;1.77;;;21.30;96.40;;;;;;4223593;28;20687;-74
2022/06/03 05:25:20;;;;;;;4.57;1.90;;;21.30;95.50;;;;;;4220117;28;20213;-73
2022/06/03 05:28:13;;;;;;;2.70;1.88;;;21.30;97.00;;;;;;4225105;28;20218;-74
2022/06/03 05:30:43;;;;;;;2.58;1.77;;;21.40;96.10;;;;;;4219233;28;20221;-74
2022/06/03 05:33:20;;;;;;;2.35;1.80;;;21.30;95.70;;;;;;4222362;28;20259;-74
2022/06/03 05:35:57;;;;;;;2.53;1.80;;;21.30;96.50;;;;;;4219417;28;20209;-74
2022/06/03 05:38:33;;;;;;;1.98;1.75;;;21.30;96.10;;;;;;4230166;28;20222;-74
2022/06/03 05:40:58;;;;;;;2.78;1.70;;;21.40;96.60;;;;;;4225823;28;20290;-74
2022/06/03 05:43:41;;;;;;;2.10;1.50;;;21.40;95.90;;;;;;4226452;28;20238;-74
2022/06/03 05:46:08;;;;;;;2.92;1.70;;;21.40;96.10;;;;;;4225472;28;20202;-74
2022/06/03 05:48:14;;;;;;;1.88;1.52;;;21.40;96.60;;;;;;4225164;28;20320;-74
2022/06/03 05:50:22;;;;;;;1.92;1.77;;;21.40;96.70;;;;;;4227185;28;20270;-73
2022/06/03 05:52:40;;;;;;;1.83;1.60;;;21.40;96.30;;;;;;4227308;28;20217;-74
2022/06/03 05:54:50;;;;;;;2.33;1.80;;;21.40;96.20;;;;;;4222891;28;20222;-74
2022/06/03 05:56:57;;;;;;;4.53;2.03;;;21.40;96.80;;;;;;4225035;28;20205;-74
2022/06/03 05:59:10;;;;;;;2.85;1.77;;;21.40;96.30;;;;;;4223188;28;20212;-74
2022/06/03 06:01:28;;;;;;;2.60;1.70;;;21.40;96.40;;;;;;4224020;28;20313;-74
2022/06/03 06:03:37;;;;;;;3.20;1.85;;;21.40;96.50;;;;;;4227113;28;20299;-74
2022/06/03 06:05:48;;;;;;;2.30;1.88;;;21.40;96.10;;;;;;4224059;28;20631;-73
2022/06/03 06:08:04;;;;;;;2.60;1.88;;;21.40;96.60;;;;;;4215003;28;20295;-74
2022/06/03 06:10:15;;;;;;;2.17;1.67;;;21.40;97.00;;;;;;4211445;28;20274;-74
2022/06/03 06:12:40;;;;;;;2.95;1.80;;;21.50;96.30;;;;;;4209849;28;20662;-74
2022/06/03 06:14:54;;;;;;;2.83;1.90;;;21.50;96.20;;;;;;4214825;28;20659;-73
2022/06/03 06:17:01;;;;;;;2.70;1.73;;;21.50;97.00;;;;;;4215979;28;20242;-74
2022/06/03 06:19:06;;;;;;;2.63;1.92;;;21.50;96.60;;;;;;4211712;28;20275;-74
2022/06/03 06:21:33;;;;;;;2.88;1.70;;;21.50;96.70;;;;;;4217301;28;20218;-74
2022/06/03 06:23:43;;;;;;;4.00;1.70;;;21.50;96.50;;;;;;4210614;28;20234;-74
2022/06/03 06:26:05;;;;;;;2.03;1.67;;;21.50;96.10;;;;;;4216507;28;20267;-73
2022/06/03 06:28:27;;;;;;;3.58;2.00;;;21.50;96.20;;;;;;4213451;28;20218;-74
2022/06/03 06:30:48;;;;;;;3.38;1.95;;;21.50;95.90;;;;;;4213170;28;20219;-74
2022/06/03 06:33:21;;;;;;;2.60;1.85;;;21.50;96.10;;;;;;4211983;28;20217;-74
2022/06/03 06:35:57;;;;;;;2.80;1.50;;;21.50;95.90;;;;;;4210877;28;20272;-73
2022/06/03 06:38:09;;;;;;;3.17;1.80;;;21.50;95.80;;;;;;4221761;28;20228;-74
2022/06/03 06:40:23;;;;;;;2.25;1.60;;;21.50;95.90;;;;;;4218293;28;20749;-74
2022/06/03 06:42:36;;;;;;;2.08;1.40;;;21.50;96.00;;;;;;4214902;28;20589;-74
2022/06/03 06:44:52;;;;;;;2.25;1.80;;;21.50;96.00;;;;;;4214335;28;20747;-74
2022/06/03 06:47:00;;;;;;;1.92;1.70;;;21.50;95.70;;;;;;4214091;28;20221;-74
2022/06/03 06:49:17;;;;;;;2.70;1.70;;;21.50;95.90;;;;;;4213590;28;20263;-74
2022/06/03 06:51:36;;;;;;;1.92;1.70;;;21.50;95.80;;;;;;4213231;28;20620;-74
2022/06/03 06:53:47;;;;;;;2.15;1.67;;;21.50;95.80;;;;;;4213792;28;20218;-73
2022/06/03 06:55:56;;;;;;;2.78;1.70;;;21.50;95.60;;;;;;4213583;28;20655;-74
2022/06/03 06:58:02;;;;;;;2.53;1.60;;;21.60;95.70;;;;;;4217751;28;20684;-73
2022/06/03 07:00:16;;;;;;;2.25;1.77;;;21.60;95.60;;;;;;4209506;28;20264;-73
2022/06/03 07:02:24;;;;;;;5.00;3.10;;;21.50;95.60;;;;;;4208915;28;20268;-74
2022/06/03 07:04:31;;;;;;;6.88;3.60;;;21.40;95.40;;;;;;4210758;28;20242;-74
2022/06/03 07:06:41;;;;;;;7.65;3.75;;;21.00;95.90;;;;;;4215281;28;20278;-74
2022/06/03 07:08:52;;;;;;;7.20;3.28;;;21.00;96.20;;;;;;4223060;28;20218;-74
2022/06/03 07:11:03;;;;;;;7.85;3.67;;;20.90;96.30;;;;;;4228593;28;20214;-74
2022/06/03 07:13:11;;;;;;;6.22;3.83;;;20.70;96.50;;;;;;4222038;27;20221;-74
2022/06/03 07:15:18;;;;;;;8.73;4.03;;;20.60;96.80;;;;;;4226749;27;20711;-72
2022/06/03 07:20:00;;;;;;;7.53;3.92;;;20.70;97.00;;;;;;4223746;28;20189;-73
2022/06/03 07:22:07;;;;;;;5.88;3.55;;;20.80;96.90;;;;;;4219665;28;20278;-75
2022/06/03 07:24:16;;;;;;;6.75;4.10;;;20.80;97.00;;;;;;4224523;28;20678;-74
2022/06/03 07:26:34;;;;;;;6.70;3.42;;;20.90;97.20;;;;;;4221838;28;20217;-75
2022/06/03 07:28:45;;;;;;;5.00;3.60;;;20.90;97.30;;;;;;4225900;28;21718;-74
2022/06/03 07:30:53;;;;;;;6.97;3.40;;;20.90;97.30;;;;;;4226392;28;20213;-73
2022/06/03 07:32:59;;;;;;;6.90;3.30;;;20.90;97.00;;;;;;4224317;28;20221;-74
2022/06/03 07:35:07;;;;;;;5.95;3.97;;;21.00;97.00;;;;;;4219860;27;20308;-74
2022/06/03 07:37:16;;;;;;;6.82;3.40;;;21.00;97.00;;;;;;4209965;27;20279;-75
2022/06/03 07:39:39;;;;;;;6.45;3.35;;;21.00;97.00;;;;;;4217113;27;20324;-75
2022/06/03 07:41:48;;;;;;;5.97;3.13;;;21.00;97.20;;;;;;4218276;28;20600;-74
2022/06/03 07:43:56;;;;;;;6.57;3.13;;;21.10;97.20;;;;;;4218803;28;20241;-75
2022/06/03 07:46:07;;;;;;;12.52;3.13;;;21.10;97.00;;;;;;4222025;28;20213;-75
2022/06/03 07:48:14;;;;;;;5.68;3.10;;;21.10;96.80;;;;;;4220045;28;20267;-75
2022/06/03 07:50:21;;;;;;;4.78;2.90;;;21.20;96.60;;;;;;4215054;27;20584;-74
2022/06/03 07:52:34;;;;;;;8.05;2.78;;;21.30;96.80;;;;;;4220768;28;20259;-74
2022/06/03 07:54:41;;;;;;;7.10;3.05;;;21.30;96.70;;;;;;4216800;28;20302;-74
2022/06/03 07:56:46;;;;;;;21.38;3.70;;;21.40;96.70;;;;;;4223141;28;20624;-74
2022/06/03 07:58:52;;;;;;;4.88;2.70;;;21.30;96.70;;;;;;4222954;27;20209;-74
2022/06/03 08:00:55;;;;;;;4.28;2.38;;;21.20;96.70;;;;;;4221035;28;20218;-75
2022/06/03 08:03:08;;;;;;;3.83;2.88;;;21.30;96.70;;;;;;4222067;28;20221;-74
2022/06/03 08:05:15;;;;;;;10.90;2.90;;;21.40;96.70;;;;;;4221765;27;20262;-73
2022/06/03 08:12:05;;;;;;;6.45;2.55;;;21.40;97.00;;;;;;4202088;28;20203;-72
2022/06/03 08:14:07;;;;;;;4.20;2.50;;;21.40;97.20;;;;;;4206912;28;20215;-73
2022/06/03 08:16:14;;;;;;;5.78;2.85;;;21.40;97.00;;;;;;4207192;28;20264;-83
2022/06/03 08:18:19;;;;;;;4.72;2.50;;;21.40;97.10;;;;;;4206697;28;20267;-82
2022/06/03 08:20:25;;;;;;;4.35;2.40;;;21.50;97.00;;;;;;4205494;28;20214;-82
2022/06/03 08:22:27;;;;;;;7.05;2.30;;;21.50;97.00;;;;;;4205437;28;20222;-81
2022/06/03 08:24:33;;;;;;;5.53;2.58;;;21.50;97.00;;;;;;4209768;28;20238;-82
2022/06/03 08:26:39;;;;;;;4.75;2.45;;;21.50;97.10;;;;;;4211637;28;20617;-84
2022/06/03 08:28:46;;;;;;;5.53;2.40;;;21.60;97.00;;;;;;4203029;28;20215;-83
2022/06/03 08:30:51;;;;;;;6.88;2.47;;;21.60;97.00;;;;;;4208400;28;20667;-82
2022/06/03 08:32:59;;;;;;;3.35;2.30;;;21.60;96.90;;;;;;4207541;28;20291;-81
2022/06/03 08:35:07;;;;;;;5.18;2.40;;;21.60;96.80;;;;;;4203809;28;20218;-83
2022/06/03 08:37:13;;;;;;;4.10;2.63;;;21.60;97.00;;;;;;4207232;28;20214;-82
2022/06/03 08:39:19;;;;;;;5.30;1.88;;;21.60;96.90;;;;;;4207174;28;20214;-83
2022/06/03 08:41:39;;;;;;;3.60;2.00;;;21.70;97.00;;;;;;4209993;28;20263;-82
2022/06/03 08:44:05;;;;;;;4.43;2.22;;;21.70;97.00;;;;;;4206249;28;20218;-81
2022/06/03 08:46:14;;;;;;;7.50;2.25;;;21.70;97.00;;;;;;4207102;28;20248;-81
2022/06/03 08:48:20;;;;;;;3.67;2.20;;;21.70;97.00;;;;;;4203977;28;20624;-81
2022/06/03 08:50:29;;;;;;;7.20;2.10;;;21.70;97.00;;;;;;4207968;28;20215;-81
2022/06/03 08:52:41;;;;;;;6.30;2.53;;;21.70;96.90;;;;;;4208412;28;20210;-81
2022/06/03 08:54:49;;;;;;;4.03;2.13;;;21.70;97.10;;;;;;4210049;28;20616;-82
2022/06/03 08:56:54;;;;;;;4.22;1.75;;;21.70;97.00;;;;;;4206756;28;20616;-84
2022/06/03 08:59:03;;;;;;;7.47;1.90;;;21.80;97.00;;;;;;4208081;28;20219;-84
2022/06/03 09:01:17;;;;;;;4.25;2.10;;;21.80;96.90;;;;;;4206775;28;20268;-79
2022/06/03 09:03:22;;;;;;;6.15;2.03;;;21.80;97.10;;;;;;4200578;28;20223;-82
2022/06/03 09:05:30;;;;;;;3.72;1.88;;;21.80;97.10;;;;;;4205646;28;20619;-82
2022/06/03 09:07:39;;;;;;;5.13;1.65;;;21.80;97.20;;;;;;4209143;28;20282;-86
2022/06/03 09:09:47;;;;;;;4.43;2.00;;;21.90;97.10;;;;;;4212454;28;20282;-85
2022/06/03 09:11:56;;;;;;;6.22;2.35;;;21.90;97.00;;;;;;4217243;28;20223;-85
2022/06/03 09:14:06;;;;;;;3.63;1.80;;;22.00;96.90;;;;;;4214676;28;20255;-82
2022/06/03 09:16:11;;;;;;;2.97;1.70;;;22.10;96.80;;;;;;4207757;28;20248;-80
2022/06/03 09:18:18;;;;;;;3.10;1.58;;;22.10;97.00;;;;;;4208946;28;20306;-81
2022/06/03 09:20:24;;;;;;;4.97;1.60;;;22.00;96.80;;;;;;4214248;28;20728;-80
2022/06/03 09:22:31;;;;;;;4.30;1.67;;;22.00;96.70;;;;;;4216476;28;20214;-83
2022/06/03 09:24:40;;;;;;;3.65;2.03;;;22.00;96.70;;;;;;4219388;28;20700;-83
2022/06/03 09:26:46;;;;;;;2.97;1.42;;;22.10;96.80;;;;;;4210463;28;20205;-80
2022/06/03 09:28:48;;;;;;;4.53;1.70;;;22.20;96.80;;;;;;4215376;28;20262;-80
2022/06/03 09:30:55;;;;;;;4.28;2.13;;;22.10;96.70;;;;;;4218102;28;20267;-80
2022/06/03 09:32:59;;;;;;;5.03;1.75;;;22.20;96.80;;;;;;4215448;28;20272;-83
2022/06/03 09:35:06;;;;;;;2.78;1.58;;;22.20;96.60;;;;;;4216770;28;20284;-79
2022/06/03 09:37:10;;;;;;;4.43;1.98;;;22.30;96.80;;;;;;4203149;28;20271;-80
2022/06/03 09:39:15;;;;;;;5.35;2.00;;;22.20;96.70;;;;;;4211847;28;20226;-79
2022/06/03 09:41:22;;;;;;;6.72;1.75;;;22.20;97.20;;;;;;4220804;28;20217;-79
2022/06/03 09:43:27;;;;;;;5.97;2.10;;;22.20;96.90;;;;;;4218164;28;20215;-78
2022/06/03 09:45:31;;;;;;;7.78;2.20;;;22.20;96.90;;;;;;4223414;28;20692;-80
2022/06/03 09:47:39;;;;;;;3.78;2.13;;;22.20;96.90;;;;;;4213083;28;20268;-80
2022/06/03 09:49:41;;;;;;;4.53;2.22;;;22.30;96.60;;;;;;4219088;28;20263;-78
2022/06/03 09:51:59;;;;;;;4.50;2.10;;;22.30;96.50;;;;;;4225357;28;20654;-78
2022/06/03 09:54:01;;;;;;;3.85;2.22;;;22.30;96.40;;;;;;4217670;28;20218;-81
2022/06/03 09:56:07;;;;;;;2.67;1.90;;;22.30;96.40;;;;;;4219445;28;20225;-80
2022/06/03 09:58:13;;;;;;;6.10;2.78;;;22.40;96.40;;;;;;4216037;28;20214;-79
2022/06/03 10:00:18;;;;;;;4.10;2.22;;;22.30;96.50;;;;;;4209507;28;20213;-77
2022/06/03 10:02:20;;;;;;;4.10;2.50;;;22.40;96.30;;;;;;4220834;28;20246;-80
2022/06/03 10:04:25;;;;;;;3.20;2.40;;;22.50;96.30;;;;;;4214050;28;20279;-81
2022/06/03 10:06:43;;;;;;;3.47;2.05;;;22.50;96.50;;;;;;4218850;28;20231;-81
2022/06/03 10:13:28;;;;;;;4.63;2.03;;;22.40;95.70;;;;;;4226993;27;20201;-84
2022/06/03 10:15:41;;;;;;;3.28;2.17;;;22.40;95.60;;;;;;4227217;28;20262;-80
2022/06/03 10:17:46;;;;;;;7.38;2.25;;;22.50;95.60;;;;;;4220786;28;20613;-78
2022/06/03 10:19:52;;;;;;;4.05;2.22;;;22.60;95.50;;;;;;4208672;27;20210;-80
2022/06/03 10:21:56;;;;;;;5.55;2.28;;;22.60;95.20;;;;;;4222158;28;20282;-82
2022/06/03 10:24:00;;;;;;;3.65;2.33;;;22.50;95.30;;;;;;4222082;27;20225;-78
2022/06/03 10:26:05;;;;;;;5.07;2.63;;;22.50;95.20;;;;;;4223438;28;20770;-84
2022/06/03 10:28:10;;;;;;;9.05;2.20;;;22.60;95.50;;;;;;4222311;27;20218;-82
2022/06/03 10:30:15;;;;;;;2.65;2.00;;;22.60;95.30;;;;;;4209038;27;20720;-79
2022/06/03 10:32:21;;;;;;;5.63;2.10;;;22.70;95.20;;;;;;4212185;27;20703;-81
2022/06/03 10:34:27;;;;;;;4.07;2.03;;;22.70;95.10;;;;;;4227501;28;20267;-80
2022/06/03 10:36:35;;;;;;;8.13;2.28;;;22.70;95.40;;;;;;4225126;28;20646;-81
2022/06/03 10:38:38;;;;;;;3.90;2.08;;;22.70;94.90;;;;;;4222131;27;20209;-80
2022/06/03 10:40:44;;;;;;;5.15;2.03;;;22.70;94.90;;;;;;4227308;28;20213;-81
2022/06/03 10:42:48;;;;;;;4.72;2.30;;;22.60;94.90;;;;;;4212529;27;20255;-82
2022/06/03 10:44:55;;;;;;;4.88;2.20;;;22.80;94.90;;;;;;4221301;28;20256;-81
2022/06/03 10:47:02;;;;;;;3.97;2.38;;;22.80;94.90;;;;;;4213312;27;20233;-83
2022/06/03 10:49:12;;;;;;;7.10;2.10;;;22.80;94.70;;;;;;4214833;27;20248;-84
2022/06/03 11:01:06;;;;;;;5.72;2.28;;;22.80;94.90;;;;;;4223894;27;20262;-79
2022/06/03 11:01:17;;;;;;;4.75;2.20;;;22.90;94.50;;;;;;4244369;27;20205;-82
2022/06/03 11:03:25;;;;;;;3.70;2.00;;;22.90;94.60;;;;;;4245250;27;20652;-82
2022/06/03 11:05:31;;;;;;;3.53;2.38;;;23.00;94.80;;;;;;4244226;27;20228;-82
2022/06/03 11:07:35;;;;;;;4.30;2.17;;;22.90;94.80;;;;;;4242086;27;20910;-82
2022/06/03 11:09:51;;;;;;;4.22;2.10;;;22.90;94.90;;;;;;4241195;27;20213;-82
2022/06/03 11:11:59;;;;;;;5.05;2.33;;;22.90;94.80;;;;;;4245210;27;20246;-82
2022/06/03 11:14:24;;;;;;;3.40;2.40;;;22.90;95.10;;;;;;4244717;27;20213;-82
2022/06/03 11:16:27;;;;;;;3.38;2.40;;;22.90;94.90;;;;;;4242932;27;20206;-82
2022/06/03 11:18:34;;;;;;;2.90;2.42;;;22.90;94.80;;;;;;4243748;27;20753;-82
2022/06/03 11:20:39;;;;;;;3.05;2.40;;;22.90;94.90;;;;;;4245824;27;20546;-82
2022/06/03 11:22:43;;;;;;;4.80;2.50;;;22.90;94.90;;;;;;4245092;27;20209;-82
2022/06/03 11:24:56;;;;;;;5.20;2.70;;;22.90;95.00;;;;;;4243383;27;20263;-82
2022/06/03 11:26:59;;;;;;;4.88;2.78;;;22.90;95.10;;;;;;4243759;27;20252;-84
2022/06/03 11:29:05;;;;;;;3.60;2.28;;;22.90;95.40;;;;;;4244435;27;20209;-81
2022/06/03 11:31:12;;;;;;;6.53;2.92;;;22.90;95.40;;;;;;4244816;27;20309;-81
2022/06/03 11:33:19;;;;;;;3.70;2.97;;;22.90;95.10;;;;;;4244609;27;20685;-81
2022/06/03 11:35:29;;;;;;;4.50;2.58;;;22.90;95.10;;;;;;4243333;27;20663;-82
2022/06/03 11:37:39;;;;;;;3.08;2.72;;;22.80;95.10;;;;;;4243180;27;20220;-82
2022/06/03 11:39:47;;;;;;;4.38;2.70;;;22.90;95.20;;;;;;4242451;27;20273;-82
2022/06/03 11:41:56;;;;;;;4.00;2.78;;;22.90;95.20;;;;;;4239865;27;20225;-82
2022/06/03 11:44:04;;;;;;;4.10;2.60;;;22.90;95.20;;;;;;4242747;27;20212;-82
2022/06/03 11:46:11;;;;;;;2.67;2.47;;;22.80;95.20;;;;;;4244374;27;20249;-81
2022/06/03 11:48:18;;;;;;;3.75;2.40;;;22.90;95.20;;;;;;4241919;27;20206;-82
2022/06/03 11:50:23;;;;;;;4.20;2.45;;;22.80;95.20;;;;;;4242986;27;20213;-82
2022/06/03 11:52:26;;;;;;;3.55;2.58;;;22.90;95.20;;;;;;4244247;27;20213;-82
2022/06/03 11:54:29;;;;;;;2.80;2.30;;;22.90;95.30;;;;;;4245042;27;20618;-82
2022/06/03 11:56:35;;;;;;;3.28;2.67;;;22.90;95.30;;;;;;4239828;27;20610;-82
2022/06/03 11:58:47;;;;;;;3.80;2.50;;;22.90;95.30;;;;;;4238686;27;20274;-82
2022/06/03 12:00:55;;;;;;;4.57;2.50;;;22.90;95.30;;;;;;4239001;27;20217;-83
2022/06/03 12:03:29;;;;;;;2.33;2.13;;;22.90;95.30;;;;;;4243334;27;20269;-82
2022/06/03 12:05:38;;;;;;;2.22;2.10;;;22.90;95.30;;;;;;4243132;27;20729;-82
2022/06/03 12:07:45;;;;;;;3.78;2.38;;;22.90;95.30;;;;;;4242501;27;20308;-82
2022/06/03 12:09:53;;;;;;;2.65;1.95;;;22.90;95.30;;;;;;4241685;27;20258;-82
2022/06/03 12:14:31;;;;;;;2.85;2.50;;;22.90;95.30;;;;;;4244089;27;20193;-82
2022/06/03 12:16:53;;;;;;;2.38;2.15;;;22.90;95.30;;;;;;4242685;27;20237;-81
2022/06/03 12:19:04;;;;;;;4.43;2.40;;;22.90;95.40;;;;;;4243066;27;20649;-82
2022/06/03 12:21:09;;;;;;;2.67;2.47;;;23.00;95.40;;;;;;4244741;27;20258;-82
2022/06/03 12:23:49;;;;;;;3.53;2.20;;;22.90;95.70;;;;;;4244230;27;20293;-82
2022/06/03 12:26:09;;;;;;;2.63;2.03;;;22.90;95.40;;;;;;4242371;27;20273;-82
2022/06/03 12:28:19;;;;;;;3.78;2.40;;;22.90;95.30;;;;;;4244783;27;20225;-82